Brooks, Kentucky
Current Conditions -  °F | °C
As of 9:05 AM on Monday 22 Dec 2014 (Local Time) from KSDF Reporting Station
Overcast Overcast  
Wind Chill: 41°   Ceiling: 2200
Heat Index: 41°   Visibility: 10mi
Dew Point: 32°   Wind: 3mph
Humidity: 70%   Direction: 80°E
Pressure: 29.96"   Gusts: NA
Location:  38.06°N, 85.71°W
Report Text: KSDF 221405Z 08003KT 10SM BKN022 OVC039 05/00 A2996 RMK AO2 T00500000
Loading
Personal Weather Stations






























Interactive Weather Map New forecast layout! Learn more

10-Day Weather Forecast

Advertisements
Track Severe Weather on mobile